Time;durP1;ratioP1;P1;durP2;ratioP2;P2;SDS_P1;SDS_P2;PMS_P1;PMS_P2;Temp;Humidity;BMP_temperature;BMP_pressure;BME280_temperature;BME280_humidity;BME280_pressure;Samples;Min_cycle;Max_cycle;Signal;HPM_P1;HPM_P2
2023/11/04 00:02:16;;;;;;;1.60;0.87;;;8.40;81.40;;;;;;5060363;28;20186;-87
2023/11/04 00:04:42;;;;;;;1.50;0.80;;;8.50;1.00;;;;;;5056203;28;20454;-86
2023/11/04 00:07:08;;;;;;;1.43;0.80;;;8.60;1.00;;;;;;5053009;28;20174;-86
2023/11/04 00:09:34;;;;;;;1.30;0.80;;;8.70;1.00;;;;;;5043011;28;20981;-86
2023/11/04 00:12:00;;;;;;;1.80;0.90;;;8.80;99.90;;;;;;5068995;28;20253;-87
2023/11/04 00:14:25;;;;;;;1.27;0.80;;;8.80;99.90;;;;;;5075160;28;20232;-87
2023/11/04 00:16:51;;;;;;;2.80;1.20;;;8.90;99.90;;;;;;5074348;28;20178;-86
2023/11/04 00:19:16;;;;;;;2.20;0.80;;;8.90;99.90;;;;;;5067881;28;20210;-87
2023/11/04 00:21:42;;;;;;;1.20;1.00;;;9.00;99.90;;;;;;5055255;28;20188;-87
2023/11/04 00:24:11;;;;;;;1.87;0.90;;;9.00;99.90;;;;;;5063058;28;20639;-86
2023/11/04 00:26:37;;;;;;;1.30;0.80;;;9.00;99.90;;;;;;5047842;28;20217;-87
2023/11/04 00:29:03;;;;;;;1.50;0.70;;;9.00;99.90;;;;;;5060157;28;20512;-86
2023/11/04 00:31:29;;;;;;;1.63;0.90;;;9.00;99.90;;;;;;5062033;28;20533;-86
2023/11/04 00:33:55;;;;;;;1.20;0.80;;;9.00;99.90;;;;;;5067070;28;20482;-87
2023/11/04 00:36:21;;;;;;;1.77;0.87;;;8.90;99.90;;;;;;5039401;28;20189;-86
2023/11/04 00:38:46;;;;;;;1.37;0.80;;;8.90;99.90;;;;;;5055634;28;20499;-87
2023/11/04 00:41:12;;;;;;;1.10;0.80;;;8.80;99.90;;;;;;5035358;28;20183;-86
2023/11/04 00:43:37;;;;;;;1.10;0.70;;;8.80;99.90;;;;;;5051985;28;20190;-86
2023/11/04 00:46:03;;;;;;;3.10;0.90;;;8.70;99.90;;;;;;5035219;28;20194;-86
2023/11/04 00:48:29;;;;;;;1.17;0.77;;;8.70;99.90;;;;;;5052998;28;20616;-87
2023/11/04 00:50:54;;;;;;;1.50;0.80;;;8.70;1.00;;;;;;5053302;28;20208;-88
2023/11/04 00:53:19;;;;;;;1.93;0.80;;;8.60;1.00;;;;;;5052937;28;20820;-87
2023/11/04 00:55:45;;;;;;;2.80;0.90;;;8.60;1.00;;;;;;5045800;28;20188;-87
2023/11/04 00:58:10;;;;;;;1.10;0.80;;;8.50;1.00;;;;;;5046243;28;20210;-86
2023/11/04 01:00:39;;;;;;;1.20;0.83;;;8.50;99.90;;;;;;5052410;28;20181;-87
2023/11/04 01:03:05;;;;;;;1.73;1.13;;;8.50;99.90;;;;;;5052759;28;20182;-87
2023/11/04 01:05:30;;;;;;;1.40;0.80;;;8.40;99.90;;;;;;5052067;28;20448;-86
2023/11/04 01:07:56;;;;;;;1.27;0.73;;;8.40;99.90;;;;;;5049166;28;20476;-86
2023/11/04 01:10:21;;;;;;;1.50;0.90;;;8.40;99.90;;;;;;5052530;28;20186;-85
2023/11/04 01:12:47;;;;;;;1.10;0.87;;;8.40;1.00;;;;;;5053711;28;20700;-87
2023/11/04 01:15:12;;;;;;;1.50;0.80;;;8.40;1.00;;;;;;5052164;28;20269;-86
2023/11/04 01:17:38;;;;;;;1.20;0.90;;;8.50;1.00;;;;;;5050396;28;20574;-86
2023/11/04 01:20:05;;;;;;;2.70;0.80;;;8.50;99.90;;;;;;5034818;28;20182;-87
2023/11/04 01:22:31;;;;;;;1.53;0.90;;;8.60;99.90;;;;;;5060494;28;20257;-86
2023/11/04 01:24:56;;;;;;;1.00;0.70;;;8.60;99.90;;;;;;5052293;28;20467;-88
2023/11/04 01:27:22;;;;;;;1.50;1.40;;;8.70;99.90;;;;;;5052033;28;20182;-86
2023/11/04 01:29:49;;;;;;;1.20;0.80;;;8.70;55.30;;;;;;5054754;28;20455;-86
2023/11/04 01:32:15;;;;;;;1.40;0.70;;;8.80;8.70;;;;;;5061020;28;20672;-86
2023/11/04 01:34:41;;;;;;;1.20;0.80;;;8.80;1.00;;;;;;5041419;28;20474;-86
2023/11/04 01:37:06;;;;;;;1.00;0.70;;;8.80;1.00;;;;;;5061310;28;20178;-86
2023/11/04 01:39:33;;;;;;;2.13;1.17;;;8.90;1.00;;;;;;5060680;28;20248;-86
2023/11/04 01:42:04;;;;;;;1.30;0.77;;;8.90;1.00;;;;;;5037213;28;20186;-86
2023/11/04 01:44:30;;;;;;;1.63;0.80;;;8.90;1.00;;;;;;5052413;28;20953;-85
2023/11/04 01:46:56;;;;;;;1.50;1.00;;;8.90;1.00;;;;;;5055797;28;20444;-86
2023/11/04 01:49:21;;;;;;;4.67;0.77;;;9.00;1.00;;;;;;5056359;28;21968;-85
2023/11/04 01:51:47;;;;;;;1.40;0.90;;;9.00;1.00;;;;;;5033803;28;20217;-86
2023/11/04 01:54:14;;;;;;;1.53;0.87;;;9.00;1.00;;;;;;5056077;28;20205;-86
2023/11/04 01:56:41;;;;;;;4.40;0.80;;;9.10;1.00;;;;;;5057706;28;20205;-86
2023/11/04 01:59:10;;;;;;;2.47;0.80;;;9.10;1.00;;;;;;5052651;28;20973;-88
2023/11/04 02:01:41;;;;;;;1.70;1.03;;;9.10;1.00;;;;;;5047538;28;21011;-87
2023/11/04 02:04:07;;;;;;;1.33;0.80;;;9.10;1.00;;;;;;5050096;28;20437;-87
2023/11/04 02:06:33;;;;;;;3.50;0.80;;;9.10;1.00;;;;;;5032802;28;20444;-88
2023/11/04 02:08:58;;;;;;;1.60;0.90;;;9.10;1.00;;;;;;5055059;28;20213;-87
2023/11/04 02:11:24;;;;;;;1.30;0.80;;;9.10;1.00;;;;;;5056132;28;20186;-87
2023/11/04 02:13:50;;;;;;;1.27;0.83;;;9.10;99.90;;;;;;5049648;28;20222;-87
2023/11/04 02:16:17;;;;;;;2.53;0.77;;;9.20;99.90;;;;;;5037207;28;20380;-87
2023/11/04 02:18:43;;;;;;;1.33;0.70;;;9.20;1.00;;;;;;5055037;28;20697;-86
2023/11/04 02:21:08;;;;;;;1.03;0.67;;;9.30;1.00;;;;;;5034816;28;20433;-87
2023/11/04 02:23:34;;;;;;;1.60;0.90;;;9.30;1.00;;;;;;5048854;28;20178;-87
2023/11/04 02:25:59;;;;;;;2.77;0.73;;;9.40;1.00;;;;;;5057695;28;20185;-86
2023/11/04 02:28:25;;;;;;;1.50;0.80;;;9.40;1.00;;;;;;5031609;28;20221;-87
2023/11/04 02:30:51;;;;;;;1.20;0.70;;;9.50;1.00;;;;;;5055023;28;20555;-87
2023/11/04 02:33:16;;;;;;;3.60;0.80;;;9.50;99.90;;;;;;5053702;28;20186;-88
2023/11/04 02:35:43;;;;;;;1.50;0.80;;;9.60;99.90;;;;;;5054004;28;20271;-87
2023/11/04 02:38:08;;;;;;;1.47;0.77;;;9.60;99.90;;;;;;5055315;28;20209;-87
2023/11/04 02:40:34;;;;;;;1.10;0.80;;;9.60;99.90;;;;;;5052328;28;20449;-86
2023/11/04 02:42:59;;;;;;;1.50;0.70;;;9.70;99.90;;;;;;5054551;28;20553;-88
2023/11/04 02:45:27;;;;;;;1.20;0.70;;;9.70;1.00;;;;;;5054681;28;20193;-87
2023/11/04 02:47:52;;;;;;;1.73;0.90;;;9.70;1.00;;;;;;5054411;28;20189;-87
2023/11/04 02:50:18;;;;;;;1.53;0.80;;;9.80;1.00;;;;;;5047943;28;20961;-87
2023/11/04 02:52:43;;;;;;;1.30;1.10;;;9.80;1.00;;;;;;5048357;28;20667;-87
2023/11/04 02:55:09;;;;;;;1.50;0.80;;;9.90;1.00;;;;;;5054877;28;20219;-87
2023/11/04 02:57:35;;;;;;;1.30;0.70;;;9.90;1.00;;;;;;5036322;28;20185;-86
2023/11/04 03:00:00;;;;;;;2.70;0.77;;;9.90;1.00;;;;;;5054991;28;20185;-87
2023/11/04 03:02:26;;;;;;;4.10;1.23;;;10.00;1.00;;;;;;5059541;28;20442;-88
2023/11/04 03:04:53;;;;;;;3.20;0.90;;;10.00;1.00;;;;;;5050870;28;20190;-86
2023/11/04 03:07:19;;;;;;;1.33;0.70;;;10.00;1.00;;;;;;5049058;28;20235;-87
2023/11/04 03:09:45;;;;;;;1.57;0.70;;;10.10;1.00;;;;;;5035438;28;20452;-87
2023/11/04 03:12:11;;;;;;;1.93;1.10;;;10.10;1.00;;;;;;5052651;28;20516;-87
2023/11/04 03:14:36;;;;;;;2.77;1.10;;;10.10;1.00;;;;;;5058947;28;20642;-87
2023/11/04 03:17:02;;;;;;;1.50;1.00;;;10.10;1.00;;;;;;5056776;28;20186;-87
2023/11/04 03:19:27;;;;;;;3.57;0.93;;;10.20;1.00;;;;;;5052505;28;20259;-87
2023/11/04 03:21:56;;;;;;;4.57;0.90;;;10.20;1.00;;;;;;5055357;28;20659;-86
2023/11/04 03:24:22;;;;;;;1.47;0.90;;;10.20;1.00;;;;;;5049437;28;20186;-87
2023/11/04 03:26:48;;;;;;;2.30;1.23;;;10.20;1.00;;;;;;5051173;28;20438;-86
2023/11/04 03:29:16;;;;;;;1.83;0.80;;;10.20;1.00;;;;;;5049065;28;20456;-88
2023/11/04 03:31:41;;;;;;;1.20;0.77;;;10.20;1.00;;;;;;5053468;28;20300;-87
2023/11/04 03:34:07;;;;;;;1.40;0.90;;;10.30;99.90;;;;;;5053060;28;20468;-87
2023/11/04 03:36:33;;;;;;;1.60;0.97;;;10.30;99.90;;;;;;5056622;28;20185;-87
2023/11/04 03:38:58;;;;;;;3.33;1.03;;;10.20;99.90;;;;;;5051809;28;20734;-86
2023/11/04 03:41:24;;;;;;;2.80;0.90;;;10.20;99.90;;;;;;5036215;28;20189;-86
2023/11/04 03:43:50;;;;;;;7.00;0.90;;;10.20;99.90;;;;;;5053982;28;20185;-85
2023/11/04 03:46:16;;;;;;;1.47;0.90;;;10.20;99.90;;;;;;5052839;28;20227;-86
2023/11/04 03:48:45;;;;;;;2.23;1.10;;;10.10;99.90;;;;;;5052869;28;20448;-84
2023/11/04 03:51:11;;;;;;;2.40;1.07;;;10.10;99.90;;;;;;5060581;28;20801;-86
2023/11/04 03:53:37;;;;;;;2.17;1.10;;;10.10;99.90;;;;;;5033946;28;20425;-85
2023/11/04 03:56:03;;;;;;;1.77;1.13;;;10.10;99.90;;;;;;5057059;28;20531;-86
2023/11/04 03:58:29;;;;;;;1.47;0.90;;;10.10;1.00;;;;;;5052791;28;20701;-85
2023/11/04 04:00:54;;;;;;;2.43;1.47;;;10.10;1.00;;;;;;5053099;28;20531;-85
2023/11/04 04:03:20;;;;;;;2.13;1.30;;;10.10;1.00;;;;;;5056910;28;20185;-86
2023/11/04 04:05:46;;;;;;;4.07;1.20;;;10.10;1.00;;;;;;5035596;28;20556;-86
2023/11/04 04:08:11;;;;;;;1.83;1.13;;;10.10;99.90;;;;;;5053707;28;20206;-85
2023/11/04 04:10:37;;;;;;;2.10;0.97;;;10.10;99.90;;;;;;5053012;28;20272;-84
2023/11/04 04:13:02;;;;;;;1.87;1.10;;;10.10;99.90;;;;;;5053334;28;20560;-86
2023/11/04 04:15:28;;;;;;;2.13;1.10;;;10.10;99.90;;;;;;5051101;28;20228;-86
2023/11/04 04:17:54;;;;;;;2.63;1.33;;;10.10;99.90;;;;;;5039067;28;20762;-86
2023/11/04 04:20:21;;;;;;;2.23;0.90;;;10.10;99.90;;;;;;5054570;28;20659;-85
2023/11/04 04:22:47;;;;;;;2.57;1.20;;;10.10;99.90;;;;;;5051849;28;20203;-86
2023/11/04 04:25:13;;;;;;;2.33;0.90;;;10.10;99.90;;;;;;5053190;28;20519;-86
2023/11/04 04:27:39;;;;;;;1.73;1.00;;;10.10;99.90;;;;;;5052674;28;20775;-83
2023/11/04 04:30:06;;;;;;;1.60;1.10;;;10.20;99.90;;;;;;5052602;28;20440;-86
2023/11/04 04:32:31;;;;;;;1.47;1.07;;;10.20;99.90;;;;;;5042191;28;20424;-86
2023/11/04 04:34:57;;;;;;;2.33;1.13;;;10.20;75.40;;;;;;5033262;28;20478;-85
2023/11/04 04:37:23;;;;;;;1.50;1.03;;;10.10;99.90;;;;;;5052591;28;20813;-86
2023/11/04 04:39:49;;;;;;;1.93;1.10;;;10.00;1.00;;;;;;5052224;28;20206;-85
2023/11/04 04:42:15;;;;;;;4.80;1.37;;;10.00;1.00;;;;;;5052851;28;20523;-86
2023/11/04 04:44:41;;;;;;;3.07;1.33;;;10.00;99.90;;;;;;5057255;28;20453;-84
2023/11/04 04:47:06;;;;;;;1.50;1.00;;;10.00;1.00;;;;;;5034389;28;20519;-86
2023/11/04 04:49:32;;;;;;;2.00;1.00;;;10.00;1.00;;;;;;5052979;28;20241;-85
2023/11/04 04:51:58;;;;;;;1.60;1.00;;;9.90;1.00;;;;;;5052453;28;20322;-86
2023/11/04 04:54:23;;;;;;;3.60;1.00;;;9.90;1.00;;;;;;5051627;28;20234;-86
2023/11/04 04:56:49;;;;;;;1.80;0.87;;;9.90;1.00;;;;;;5051391;28;20185;-85
2023/11/04 04:59:15;;;;;;;3.53;1.00;;;9.90;42.40;;;;;;5052158;28;20243;-85
2023/11/04 05:01:41;;;;;;;2.13;1.10;;;9.90;63.90;;;;;;5052539;28;20512;-84
2023/11/04 05:04:07;;;;;;;6.50;1.10;;;9.90;23.50;;;;;;5050676;28;20184;-85
2023/11/04 05:06:33;;;;;;;1.57;0.90;;;9.90;14.70;;;;;;5054475;28;20428;-85
2023/11/04 05:08:58;;;;;;;2.10;0.80;;;9.80;3.80;;;;;;5053936;28;20459;-86
2023/11/04 05:11:24;;;;;;;1.40;0.90;;;9.80;68.50;;;;;;5051038;28;20187;-86
2023/11/04 05:13:49;;;;;;;1.40;0.97;;;9.70;91.30;;;;;;5061195;28;20208;-85
2023/11/04 05:16:15;;;;;;;2.13;1.20;;;9.70;99.90;;;;;;5056773;28;20558;-85
2023/11/04 05:18:41;;;;;;;2.43;1.20;;;9.60;99.90;;;;;;5061421;28;20251;-86
2023/11/04 05:21:06;;;;;;;1.20;0.80;;;9.50;99.90;;;;;;5056004;28;20185;-86
2023/11/04 05:23:32;;;;;;;1.50;1.07;;;9.50;99.90;;;;;;5055688;28;20656;-86
2023/11/04 05:26:00;;;;;;;1.80;1.00;;;9.50;1.00;;;;;;5045844;28;20205;-86
2023/11/04 05:28:28;;;;;;;1.63;0.90;;;9.40;1.00;;;;;;5053938;28;20198;-85
2023/11/04 05:30:55;;;;;;;2.53;1.10;;;9.40;1.00;;;;;;5052147;28;20485;-86
2023/11/04 05:33:21;;;;;;;1.40;0.80;;;9.40;1.00;;;;;;5053564;28;20424;-86
2023/11/04 05:35:46;;;;;;;2.20;0.90;;;9.40;1.00;;;;;;5053513;28;20478;-85
2023/11/04 05:38:12;;;;;;;1.43;0.80;;;9.40;1.00;;;;;;5037119;28;20461;-85
2023/11/04 05:40:38;;;;;;;1.10;0.80;;;9.40;1.00;;;;;;5043465;28;20208;-86
2023/11/04 05:43:04;;;;;;;2.30;0.70;;;9.40;1.00;;;;;;5052001;28;20219;-86
2023/11/04 05:45:30;;;;;;;1.20;0.80;;;9.40;1.00;;;;;;5037362;28;20476;-86
2023/11/04 05:47:55;;;;;;;2.80;1.00;;;9.40;1.00;;;;;;5058685;28;20444;-86
2023/11/04 05:50:21;;;;;;;1.90;0.90;;;9.40;1.00;;;;;;5072823;28;20190;-86
2023/11/04 05:52:48;;;;;;;1.83;1.10;;;9.30;1.00;;;;;;5077734;28;20206;-86
2023/11/04 05:55:13;;;;;;;1.20;0.90;;;9.40;1.00;;;;;;5062388;28;20205;-87
2023/11/04 05:57:39;;;;;;;1.37;0.87;;;9.40;1.00;;;;;;5075258;28;20446;-86
2023/11/04 06:00:07;;;;;;;1.10;0.83;;;9.40;1.00;;;;;;5073245;28;20210;-87
2023/11/04 06:02:33;;;;;;;1.73;1.00;;;9.40;1.00;;;;;;5056371;28;20245;-87
2023/11/04 06:04:59;;;;;;;1.63;1.10;;;9.40;99.90;;;;;;5053621;28;20458;-86
2023/11/04 06:07:24;;;;;;;1.37;0.83;;;9.40;1.00;;;;;;5057503;28;20263;-86
2023/11/04 06:09:50;;;;;;;1.50;0.90;;;9.30;1.00;;;;;;5040322;28;20460;-86
2023/11/04 06:12:16;;;;;;;1.63;0.90;;;9.30;1.00;;;;;;5054855;28;20189;-86
2023/11/04 06:14:44;;;;;;;1.10;0.80;;;9.20;1.00;;;;;;5054384;28;20213;-86
2023/11/04 06:17:12;;;;;;;1.47;0.90;;;9.20;1.00;;;;;;5051730;28;20609;-86
2023/11/04 06:19:37;;;;;;;2.50;0.80;;;9.10;8.20;;;;;;5033567;28;20961;-86
2023/11/04 06:22:03;;;;;;;1.20;0.70;;;9.10;48.40;;;;;;5063089;28;20432;-87
2023/11/04 06:24:28;;;;;;;2.20;0.70;;;9.10;35.50;;;;;;5055607;28;20199;-86
2023/11/04 06:26:57;;;;;;;2.80;2.60;;;9.00;61.50;;;;;;5054348;28;20244;-86
2023/11/04 06:29:23;;;;;;;1.10;0.70;;;9.00;58.40;;;;;;5032694;28;20206;-86
2023/11/04 06:31:48;;;;;;;2.30;0.70;;;9.00;36.90;;;;;;5034755;28;20448;-86
2023/11/04 06:34:14;;;;;;;2.70;0.60;;;9.00;99.90;;;;;;5027126;28;20213;-87
2023/11/04 06:36:40;;;;;;;1.83;0.60;;;9.00;99.90;;;;;;5046955;28;20189;-85
2023/11/04 06:39:06;;;;;;;2.93;0.70;;;8.90;99.90;;;;;;5051332;28;20292;-86
2023/11/04 06:41:31;;;;;;;1.03;0.57;;;8.90;99.90;;;;;;5054465;28;20178;-86
2023/11/04 06:43:57;;;;;;;1.90;0.87;;;9.00;99.90;;;;;;5057750;28;20444;-86
2023/11/04 06:46:23;;;;;;;0.90;0.60;;;9.00;99.90;;;;;;5054078;28;20205;-86
2023/11/04 06:48:49;;;;;;;1.40;0.80;;;9.00;99.90;;;;;;5032437;28;20224;-86
2023/11/04 06:51:18;;;;;;;1.00;0.60;;;9.00;99.90;;;;;;5056165;28;20474;-86
2023/11/04 06:53:44;;;;;;;1.10;0.70;;;9.10;99.90;;;;;;5055834;28;20182;-86
2023/11/04 06:56:09;;;;;;;1.17;0.70;;;9.10;83.20;;;;;;5054781;28;20435;-87
2023/11/04 06:58:35;;;;;;;1.77;0.93;;;9.10;71.90;;;;;;5055735;28;20221;-86
2023/11/04 07:01:01;;;;;;;1.10;0.70;;;9.10;99.90;;;;;;5051482;28;20182;-86
2023/11/04 07:03:29;;;;;;;2.80;0.60;;;9.10;24.40;;;;;;5058303;28;20207;-85
2023/11/04 07:05:55;;;;;;;2.47;0.93;;;9.20;1.00;;;;;;5059919;28;21032;-85
2023/11/04 07:08:21;;;;;;;4.33;0.83;;;9.40;1.00;;;;;;5058813;28;20542;-85
2023/11/04 07:10:46;;;;;;;1.87;0.80;;;9.60;99.90;;;;;;5060908;28;20412;-85
2023/11/04 07:13:13;;;;;;;2.27;0.80;;;9.70;99.90;;;;;;5061204;28;20196;-83
2023/11/04 07:15:41;;;;;;;3.00;0.73;;;9.70;50.80;;;;;;5061334;28;20201;-84
2023/11/04 07:18:07;;;;;;;1.50;0.83;;;9.70;1.00;;;;;;5056451;28;20487;-85
2023/11/04 07:20:38;;;;;;;3.43;0.80;;;9.80;1.00;;;;;;5039442;28;20416;-85
2023/11/04 07:23:04;;;;;;;3.27;0.90;;;10.00;1.00;;;;;;5040116;28;20443;-85
2023/11/04 07:25:30;;;;;;;2.00;1.10;;;10.10;99.90;;;;;;5058310;28;20428;-83
2023/11/04 07:27:57;;;;;;;1.23;0.70;;;10.10;99.90;;;;;;5042495;28;20678;-85
2023/11/04 07:30:23;;;;;;;1.03;0.70;;;10.20;99.90;;;;;;5041974;28;20641;-82
2023/11/04 07:32:48;;;;;;;2.67;0.80;;;10.20;99.90;;;;;;5058710;28;20438;-83
2023/11/04 07:35:14;;;;;;;1.50;0.80;;;10.20;99.90;;;;;;5041039;28;20260;-84
2023/11/04 07:37:39;;;;;;;1.63;0.80;;;10.30;99.90;;;;;;5059740;28;20178;-82
2023/11/04 07:40:08;;;;;;;1.10;0.60;;;10.20;1.00;;;;;;5059186;28;20196;-81
2023/11/04 07:42:35;;;;;;;2.53;0.90;;;10.30;1.00;;;;;;5060489;28;20269;-86
2023/11/04 07:45:00;;;;;;;1.80;0.80;;;10.30;1.00;;;;;;5042274;28;20425;-86
2023/11/04 07:47:26;;;;;;;1.20;0.60;;;10.40;1.00;;;;;;5059094;28;20448;-83
2023/11/04 07:49:51;;;;;;;2.30;0.80;;;10.40;1.00;;;;;;5058387;28;20209;-84
2023/11/04 07:52:17;;;;;;;2.23;1.00;;;10.50;19.60;;;;;;5059112;28;20190;-84
2023/11/04 07:54:43;;;;;;;2.40;0.83;;;10.50;91.30;;;;;;5059744;28;20615;-86
2023/11/04 07:57:09;;;;;;;1.60;0.83;;;10.60;1.00;;;;;;5058909;28;20438;-84
2023/11/04 07:59:36;;;;;;;1.67;0.80;;;10.60;1.00;;;;;;5059577;28;20206;-85
2023/11/04 08:02:02;;;;;;;1.30;0.80;;;10.60;1.00;;;;;;5059313;28;20421;-85
2023/11/04 08:04:28;;;;;;;1.43;0.70;;;10.50;99.90;;;;;;5058390;28;20428;-82
2023/11/04 08:06:53;;;;;;;1.97;0.80;;;10.60;99.90;;;;;;5036421;28;20455;-86
2023/11/04 08:09:19;;;;;;;1.57;0.80;;;10.60;99.90;;;;;;5059321;28;20240;-86
2023/11/04 08:11:45;;;;;;;1.27;0.83;;;10.60;1.00;;;;;;5051950;28;20186;-85
2023/11/04 08:14:11;;;;;;;2.37;1.00;;;10.70;87.50;;;;;;5041928;28;20218;-85
2023/11/04 08:16:38;;;;;;;1.87;0.90;;;10.70;99.90;;;;;;5056772;28;20186;-85
2023/11/04 08:19:04;;;;;;;3.87;0.87;;;10.80;1.00;;;;;;5056778;28;20521;-85
2023/11/04 08:21:30;;;;;;;3.53;1.00;;;11.10;1.00;;;;;;5056646;28;20478;-87
2023/11/04 08:23:57;;;;;;;2.30;1.00;;;11.50;99.90;;;;;;5058105;28;20702;-84
2023/11/04 08:26:23;;;;;;;1.93;0.90;;;11.90;99.90;;;;;;5058504;28;20466;-86
2023/11/04 08:28:51;;;;;;;1.63;0.80;;;12.10;99.90;;;;;;5056459;28;20528;-86
2023/11/04 08:31:19;;;;;;;3.30;0.90;;;12.20;65.60;;;;;;5059455;28;20245;-85
2023/11/04 08:33:45;;;;;;;2.13;1.40;;;12.00;1.00;;;;;;5060231;28;20954;-85
2023/11/04 08:36:10;;;;;;;1.80;1.40;;;11.90;99.90;;;;;;5040435;28;20443;-84
2023/11/04 08:38:36;;;;;;;5.37;1.30;;;11.90;99.90;;;;;;5057393;28;20212;-85
2023/11/04 08:41:03;;;;;;;2.90;1.03;;;11.70;99.90;;;;;;5042082;28;20190;-84
2023/11/04 08:43:28;;;;;;;1.23;0.80;;;11.60;99.90;;;;;;5060403;28;20928;-85
2023/11/04 08:45:54;;;;;;;3.30;1.30;;;11.60;1.00;;;;;;5055261;28;20436;-85
2023/11/04 08:48:20;;;;;;;1.97;1.23;;;11.50;99.90;;;;;;5054822;28;20757;-84
2023/11/04 08:50:45;;;;;;;1.73;1.10;;;11.40;99.90;;;;;;5056828;28;20193;-85
2023/11/04 08:53:11;;;;;;;4.90;1.20;;;11.50;99.90;;;;;;5045373;28;20190;-85
2023/11/04 08:55:37;;;;;;;1.60;1.00;;;11.80;1.00;;;;;;5049047;28;20220;-86
2023/11/04 08:58:24;;;;;;;1.20;0.90;;;11.90;1.00;;;;;;5058442;28;20225;-85
2023/11/04 09:00:50;;;;;;;1.40;0.90;;;12.00;99.90;;;;;;5048074;28;20868;-84
2023/11/04 09:03:16;;;;;;;4.30;0.90;;;12.00;99.90;;;;;;5054402;28;20817;-83
2023/11/04 09:05:41;;;;;;;1.70;0.87;;;12.10;99.90;;;;;;5033762;28;20433;-85
2023/11/04 09:08:07;;;;;;;1.60;0.80;;;12.10;97.10;;;;;;5055305;28;20273;-85
2023/11/04 09:10:32;;;;;;;1.67;0.80;;;12.50;1.00;;;;;;5055358;28;20628;-84
2023/11/04 09:13:06;;;;;;;1.50;0.80;;;12.80;1.00;;;;;;5056396;28;20612;-85
2023/11/04 09:15:33;;;;;;;2.53;1.27;;;12.80;99.90;;;;;;5055724;28;20241;-85
2023/11/04 09:17:59;;;;;;;3.17;1.40;;;13.00;99.90;;;;;;5051185;28;20483;-85
2023/11/04 09:20:24;;;;;;;1.30;0.90;;;13.80;99.90;;;;;;5051446;28;20428;-85
2023/11/04 09:22:50;;;;;;;1.60;0.90;;;14.80;1.00;;;;;;5050035;28;20656;-85
2023/11/04 09:25:16;;;;;;;1.50;0.70;;;15.30;1.00;;;;;;5053378;28;20174;-85
2023/11/04 09:27:41;;;;;;;1.30;0.80;;;15.40;1.00;;;;;;5052710;28;20181;-86
2023/11/04 09:30:08;;;;;;;1.80;1.03;;;15.90;99.90;;;;;;5053552;28;20235;-85
2023/11/04 09:32:34;;;;;;;2.07;1.27;;;16.80;99.90;;;;;;5052703;28;20231;-86
2023/11/04 09:34:59;;;;;;;1.60;0.87;;;16.90;99.90;;;;;;5031413;28;20453;-85
2023/11/04 09:37:25;;;;;;;1.27;0.80;;;17.00;99.90;;;;;;5049055;28;20186;-83
2023/11/04 09:39:51;;;;;;;3.70;1.10;;;16.80;99.90;;;;;;5049714;28;20703;-84
2023/11/04 09:42:17;;;;;;;2.40;1.73;;;16.50;99.90;;;;;;5048276;28;20236;-85
2023/11/04 09:44:42;;;;;;;3.37;1.20;;;16.40;99.90;;;;;;5052294;28;20224;-85
2023/11/04 09:47:08;;;;;;;2.47;1.43;;;16.30;99.90;;;;;;5053330;28;20186;-85
2023/11/04 09:49:33;;;;;;;2.40;0.97;;;16.60;99.90;;;;;;5048511;28;20213;-85
2023/11/04 09:52:00;;;;;;;3.73;1.17;;;16.60;99.90;;;;;;5064783;28;20190;-85
2023/11/04 09:54:28;;;;;;;3.37;1.30;;;16.20;99.90;;;;;;5059651;28;20691;-84
2023/11/04 09:56:56;;;;;;;4.23;1.67;;;15.80;99.90;;;;;;5039174;28;20433;-84
2023/11/04 09:59:22;;;;;;;2.80;1.23;;;15.40;99.90;;;;;;5059982;28;20456;-85
2023/11/04 10:01:48;;;;;;;4.07;1.50;;;15.10;99.90;;;;;;5056360;28;20470;-85
2023/11/04 10:04:13;;;;;;;2.63;1.33;;;14.90;99.90;;;;;;5038754;28;20447;-85
2023/11/04 10:06:39;;;;;;;2.63;0.90;;;14.70;99.90;;;;;;5055357;28;20185;-85
2023/11/04 10:09:04;;;;;;;3.30;0.90;;;14.60;99.90;;;;;;5053473;28;20259;-85
2023/11/04 10:11:31;;;;;;;5.67;1.57;;;14.40;99.90;;;;;;5056599;28;20186;-85
2023/11/04 10:13:56;;;;;;;5.20;1.30;;;14.00;99.90;;;;;;5056338;28;20182;-85
2023/11/04 10:16:23;;;;;;;1.80;1.37;;;14.00;99.90;;;;;;5058132;28;20423;-85
2023/11/04 10:18:49;;;;;;;2.77;1.10;;;13.90;99.90;;;;;;5058278;28;20635;-86
2023/11/04 10:21:17;;;;;;;2.07;1.10;;;13.90;99.90;;;;;;5056591;28;20416;-85
2023/11/04 10:23:43;;;;;;;3.33;1.13;;;13.80;99.90;;;;;;5057696;28;20419;-85
2023/11/04 10:26:09;;;;;;;4.23;1.80;;;13.70;99.90;;;;;;5043371;28;20444;-84
2023/11/04 10:28:35;;;;;;;2.73;1.10;;;13.70;99.90;;;;;;5058520;28;20561;-85
2023/11/04 10:31:05;;;;;;;4.73;1.40;;;13.60;99.90;;;;;;5060456;28;20182;-85
2023/11/04 10:33:36;;;;;;;3.00;1.10;;;13.60;99.90;;;;;;5058024;28;20433;-85
2023/11/04 10:36:08;;;;;;;3.20;1.30;;;13.60;99.90;;;;;;5055312;28;20463;-84
2023/11/04 10:38:37;;;;;;;2.63;1.30;;;13.50;99.90;;;;;;5056058;28;20456;-85
2023/11/04 10:41:04;;;;;;;3.47;1.40;;;13.40;99.90;;;;;;5049313;28;20423;-85
2023/11/04 10:43:37;;;;;;;3.93;1.13;;;13.30;99.90;;;;;;5053413;28;20470;-84
2023/11/04 10:46:09;;;;;;;4.30;1.20;;;13.40;99.90;;;;;;5035608;28;20975;-85
2023/11/04 10:48:53;;;;;;;2.93;1.10;;;13.30;99.90;;;;;;5054499;28;20452;-84
2023/11/04 10:51:28;;;;;;;4.43;1.43;;;13.10;99.90;;;;;;5055315;28;20490;-85
2023/11/04 10:54:12;;;;;;;3.97;1.67;;;13.00;1.00;;;;;;5055385;28;20524;-85
2023/11/04 10:56:44;;;;;;;18.53;2.40;;;12.70;99.90;;;;;;5050241;28;20474;-85
2023/11/04 10:59:32;;;;;;;11.17;1.57;;;12.50;99.90;;;;;;5046729;28;20880;-84
2023/11/04 11:01:59;;;;;;;14.20;2.17;;;12.20;99.90;;;;;;5047554;28;20520;-85
2023/11/04 11:04:26;;;;;;;4.20;2.10;;;11.90;99.90;;;;;;5032733;28;21012;-86
2023/11/04 11:06:52;;;;;;;7.07;2.20;;;11.60;99.90;;;;;;5036138;28;20439;-85
2023/11/04 11:09:19;;;;;;;14.70;2.90;;;11.40;1.00;;;;;;5056744;28;20461;-83
2023/11/04 11:11:59;;;;;;;10.17;2.07;;;11.30;1.00;;;;;;5053588;28;20443;-84
2023/11/04 11:14:25;;;;;;;13.70;2.27;;;11.20;1.00;;;;;;5038586;28;20475;-87
2023/11/04 11:17:01;;;;;;;9.23;2.43;;;10.90;1.00;;;;;;5039419;28;20424;-85
2023/11/04 11:19:27;;;;;;;7.33;2.50;;;10.80;1.00;;;;;;5055449;28;20198;-87
2023/11/04 11:21:52;;;;;;;9.30;2.67;;;10.60;1.00;;;;;;5049644;28;20433;-86
2023/11/04 11:24:21;;;;;;;6.80;2.20;;;10.70;1.00;;;;;;5055149;28;20193;-86
2023/11/04 11:26:56;;;;;;;10.10;2.20;;;10.60;1.00;;;;;;5053137;28;20331;-86
2023/11/04 11:29:26;;;;;;;12.77;1.93;;;10.60;1.00;;;;;;5053825;28;20447;-88
2023/11/04 11:32:10;;;;;;;6.57;2.40;;;10.70;1.00;;;;;;5037577;28;20439;-87
2023/11/04 11:34:56;;;;;;;5.80;2.10;;;10.80;1.00;;;;;;5046014;28;20856;-88
2023/11/04 11:37:25;;;;;;;5.80;2.43;;;10.70;1.00;;;;;;5049570;28;20487;-87
2023/11/04 11:39:52;;;;;;;7.23;2.83;;;10.60;1.00;;;;;;5051929;28;20475;-87
2023/11/04 11:42:24;;;;;;;5.90;2.23;;;10.60;1.00;;;;;;5047485;28;20448;-86
2023/11/04 11:44:50;;;;;;;9.40;2.50;;;10.60;1.00;;;;;;5053703;28;21033;-87
2023/11/04 11:47:15;;;;;;;6.90;2.47;;;10.50;1.00;;;;;;5047387;28;20502;-88
2023/11/04 11:49:41;;;;;;;5.03;2.67;;;10.30;1.00;;;;;;5047699;28;20202;-87
2023/11/04 11:52:06;;;;;;;10.00;3.20;;;10.20;1.00;;;;;;5030707;28;20190;-87
2023/11/04 11:54:32;;;;;;;8.07;2.70;;;10.20;1.00;;;;;;5032658;28;20288;-86
2023/11/04 11:56:58;;;;;;;2.73;1.93;;;10.20;1.00;;;;;;5050168;28;20681;-87
2023/11/04 11:59:24;;;;;;;9.60;2.87;;;10.20;1.00;;;;;;5047629;28;20455;-86
2023/11/04 12:01:50;;;;;;;9.00;2.40;;;10.20;1.00;;;;;;5032402;28;20432;-85
2023/11/04 12:04:17;;;;;;;4.90;2.00;;;10.20;1.00;;;;;;5035039;28;20186;-87
2023/11/04 12:06:42;;;;;;;4.50;2.30;;;10.10;1.00;;;;;;5051256;28;20806;-86
2023/11/04 12:09:10;;;;;;;5.07;2.10;;;10.00;1.00;;;;;;5046300;28;20465;-85
2023/11/04 12:11:36;;;;;;;4.10;2.90;;;10.00;1.00;;;;;;5048531;28;20191;-86
2023/11/04 12:14:02;;;;;;;4.37;2.13;;;10.00;1.00;;;;;;5053191;28;20437;-86
2023/11/04 12:16:29;;;;;;;6.47;2.00;;;10.10;1.00;;;;;;5053160;28;20871;-85
2023/11/04 12:18:54;;;;;;;5.80;2.63;;;10.20;1.00;;;;;;5052980;28;20206;-85
2023/11/04 12:21:20;;;;;;;5.27;2.07;;;10.20;1.00;;;;;;5025321;28;20482;-85
2023/11/04 12:23:46;;;;;;;2.40;1.20;;;10.10;1.00;;;;;;5053158;28;20261;-85
2023/11/04 12:26:12;;;;;;;5.53;1.90;;;10.20;1.00;;;;;;5027788;28;20275;-86
2023/11/04 12:28:39;;;;;;;4.03;1.60;;;10.20;1.00;;;;;;5043776;28;20247;-86
2023/11/04 12:31:05;;;;;;;3.80;1.63;;;10.20;1.00;;;;;;5052013;28;20514;-85
2023/11/04 12:33:34;;;;;;;8.10;1.70;;;10.20;1.00;;;;;;5052352;28;20432;-86
2023/11/04 12:36:06;;;;;;;3.00;1.33;;;10.20;1.00;;;;;;5051655;28;21033;-84
2023/11/04 12:38:32;;;;;;;8.33;2.30;;;10.20;1.00;;;;;;5029991;28;20540;-84
2023/11/04 12:40:59;;;;;;;3.20;1.63;;;10.10;1.00;;;;;;5054726;28;20543;-84
2023/11/04 12:43:25;;;;;;;2.67;1.40;;;10.10;1.00;;;;;;5034347;28;20174;-84
2023/11/04 12:45:55;;;;;;;8.50;2.03;;;10.10;1.00;;;;;;5048652;28;20440;-84
2023/11/04 12:48:21;;;;;;;3.90;1.43;;;10.00;1.00;;;;;;5057642;28;20681;-84
2023/11/04 12:50:47;;;;;;;7.83;2.10;;;10.00;1.00;;;;;;5054706;28;20476;-84
2023/11/04 12:53:12;;;;;;;3.10;2.40;;;10.00;1.00;;;;;;5054966;28;20734;-84